Course des Découvertes - 01/07/2012

10 Km Nature


Pl Do. Nom - Surname Prénom - Name S-Cat /cat Club - Team TEMPS - Time Km/h /sx
1 381 FAYEL ROMAIN MSE 1 STADE RODEZ ATHLETISME 00:41:05 14,6 1
2 360 FUALDES TEDDY MES 1 TEAM 12 00:41:29 14,5 2
3 369 SOULIE CHRISTOPHE MSE 2 TEAM 12 00:42:21 14,2 3
4 342 MIRAL FRÉDÉRIC MSE 3 CP LA PRIMAUBE 00:42:46 14,0 4
5 375 BLANC JEROME MV1 1 CPLP 00:43:22 13,8 5
6 371 TROUPEL HERVE MV1 2 RUNNING CLUB ARPAJON 00:43:55 13,7 6
7 393 ALDER AKIM MV2 1 NL 00:44:13 13,6 7
8 372 MAANANE SAMIR MSE 4 AURILLAC A 00:44:36 13,5 8
9 309 GAYRAUD CHRISTOPHE MV1 3 ATHÉ VALLON 503250 00:45:12 13,3 9
10 326 MALMONTET NICOLAS MSE 5 La Druelloise 00:46:40 12,9 10
11 350 FAGES BORIS MV1 4 NL 00:46:49 12,8 11
12 341 MALRIC PATRICK MV2 2 NL 00:47:36 12,6 12
13 411 MARTY DOMINIQUE MV1 5 COUREURS VILLENEVOIS 00:48:26 12,4 13
14 348 BOUTONNET STÉPHANE MSE 6 Tana Ouest Flagnac 00:48:48 12,3 14
15 374 SAADANE SOFIANE MSE 7 NL 00:49:13 12,2 15
16 405 LOUIS GUILLAUME MSE 8 NL 00:49:23 12,1 16
17 386 GOBIN STEPHANE MV1 6 LES TOUROULIS 00:50:05 12,0 17
18 339 DEBAISIEUX MICHEL MV3 1 TEAM 12 00:50:33 11,9 18
19 395 GENSAC JEROME MV1 7 NL 00:50:47 11,8 19
20 319 LOPEZ CLÉMENT MV2 3 Pompiers Bassin 00:51:37 11,6 20
21 303 BARRIERE NICOLE FV1 1 TEMPS COURSE 00:51:49 11,6 1
22 321 ASSIE FRÉDÉRIC MV1 8 NL 00:51:55 11,6 21
23 362 TEYSSEDRE NOËL MV1 9 NL 00:52:46 11,4 22
24 378 FAGEGALTIE CHRISTOPHE MV1 10 NL 00:52:57 11,3 23
25 382 PALOUS NICOLE FV2 1 NL 00:53:00 11,3 2
26 380 FEL PATRICE MV2 4 NL 00:53:06 11,3 24
27 389 SIRAVO JEAN LOUP MV3 2 NL 00:53:07 11,3 25
28 365 SISSAC DAVID MSE 9 NL 00:53:46 11,2 26
29 361 SASTOURNE-ARREY BRUNO MV1 11 RUGBY ADV 00:54:45 11,0 27
30 358 CARVALHO QUENTIN MES 2 NL 00:54:55 10,9 28
31 357 CARVALHO JEAN CHRISTOPHE MV1 12 NL 00:55:01 10,9 29
32 343 VAYSSIE MICHEL MV3 3 AG GIGOUZAC 00:55:10 10,9 30
33 404 GANNAC SAMUEL MSE 10 NL 00:55:23 10,8 31
34 330 CANTALA THIERRY MV1 13 NL 00:55:34 10,8 32
35 364 BOUSSAROQUE MICHEL MV2 5 NL 00:55:58 10,7 33
36 379 JACINTO CHRISTOPHE MV1 14 NL 00:55:58 10,7 34
37 349 SOUBIRAN DANIEL MV1 15 NL 00:55:58 10,7 35
38 387 HODIN NICOLAS MSE 11 NL 00:56:51 10,6 36
39 359 LUTSEN FRANCK MSE 12 NL 00:57:14 10,5 37
40 373 CHANUT BERNARD MV3 4 La Druelloise 00:57:48 10,4 38
41 310 GANNAC BERNARD MV2 6 FOULEES VERTES LALO 00:57:53 10,4 39
42 318 MARTY GILLES MV2 7 TEAM 12 00:58:10 10,3 40
43 352 DINECH RAPHAËL MJU 1 NL 00:58:17 10,3 41
44 406 SEGUALA DAVID MSE 13 NL 00:58:28 10,3 42
45 344 ESPINASSE MICHEL MV3 5 La Druelloise 00:58:58 10,2 43
46 412 GAMEL MARTY CHRISTINE FV1 2 COUREURS DE FOND 00:59:10 10,1 3
47 392 JOULIE LIONEL MV1 16 NL 00:59:27 10,1 44
48 356 ROUQUETTE LAURENT MSE 14 NL 01:00:29 9,9 45
49 347 PRIVE NICOLE FV2 2 La Druelloise 01:00:42 9,9 4
50 304 DALZON YVAN MV2 8 NL 01:00:48 9,9 46
51 353 PEREZ CELIA FSE 1 NL 01:01:07 9,8 5
52 345 GERMAIN LAURENT MSE 15 NL 01:01:08 9,8 47
53 324 CADARS MARIE FRANCOISE FV2 3 La Druelloise 01:01:25 9,8 6
54 366 MONTSERAT DANIEL MV1 17 RUNNING CLUB ARPAJON 01:02:11 9,6 48
55 306 GROUSSET PHILIPPE MV2 9 CLUB RUNINCRES1969 01:02:17 9,6 49
56 323 ICHES ERIC MV1 18 NL 01:02:20 9,6 50
57 394 LAGARRIGIE PIERRE MSE 16 NL 01:02:34 9,6 51
58 327 BESSIERE MURIEL FV1 3 NL 01:03:26 9,5 7
59 363 CLOT STANISLAS MSE 17 Pompiers Bassin 01:03:34 9,4 52
60 320 GARCIA ROBERT MV2 10 Pompiers Bassin 01:03:35 9,4 53
61 403 BOUDES CHRISTIAN MV1 19 NL 01:04:46 9,3 54
62 312 MARRE DAMIEN MV3 6 NL 01:05:01 9,2 55
63 315 SERIEYS FABIENNE FV1 4 NL 01:05:07 9,2 8
64 367 FLAMARY JACKY MV3 7 NL 01:05:07 9,2 56
65 335 DIJOLS HUGUETTE FV3 1 NL 01:05:12 9,2 9
66 370 LAGARRIGUE SYLVAIN MV1 20 NL 01:05:16 9,2 57
67 337 GASTAL CÉLINE FV1 5 AJC Rignac 01:05:41 9,1 10
68 351 SCHAEFER CLAUDE MV2 11 NL 01:06:10 9,1 58
69 314 LAURENT SANDRINE FV1 6 NL 01:06:11 9,1 11
70 377 BELVEZE JEAN PIERRE MV2 12 NL 01:06:34 9,0 59
71 398 GARIBAL CHRISTINE FV1 7 NL 01:06:38 9,0 12
72 329 GUTIN SYLVIE FV1 8 NL 01:06:43 9,0 13
73 355 AURIERES JEREMIS MSE 18 NL 01:06:48 9,0 60
74 322 VEGA NATHALIE FSE 2 NL 01:07:09 8,9 14
75 407 DOURNES PIERRE MV2 13 NL 01:07:27 8,9 61
76 368 FLAMARY COLETTE FV2 4 NL 01:07:30 8,9 15
77 354 SEGOND ERIC MV1 21 NL 01:07:44 8,9 62
78 311 BARTHE MICHEL MV3 8 CCAC Sport pour tous 01:08:02 8,8 63
79 305 GROUSSET ISABELLE FV1 9 CLUB RUNINCRES1969 01:08:44 8,7 16
80 399 FANECHERE YVES MV2 14 NL 01:09:43 8,6 64
81 338 LARRIEU SYLVIE FSE 3 NL 01:09:57 8,6 17
82 388 BOY MICKAEL MSE 19 NL 01:09:57 8,6 65
83 328 GLADIN NATHALIE FV1 10 AJC Rignac 01:10:15 8,5 18
84 340 VLEMINCKX EVELYNE FV3 2 AJC Rignac 01:10:15 8,5 19
85 316 SALINIER HELENE FSE 4 NL 01:10:16 8,5 20
86 317 MARTY MARYLINE FV2 5 TEAM 12 01:10:22 8,5 21
87 325 CABRIT CHRISTINE FV1 11 NL 01:10:23 8,5 22
88 401 MARTY GHISLAINE FV1 12 NL 01:11:41 8,4 23
89 402 GRATUZE NELLY FV1 13 NL 01:11:41 8,4 24
90 391 GARES CEDRIC MV1 22 NL 01:12:06 8,3 66
91 331 FLOTTE LAURENCE FV2 6 NL 01:13:30 8,2 25
92 410 LOPES CATHY FSE 5 NL 01:14:02 8,1 26
93 383 IZARD THIERRY MV1 23 NL 01:14:15 8,1 67
94 409 LOCHES AUGUSTE MSE 20 NL 01:14:42 8,0 68
95 400 FUSTIER MARTINE FV2 7 VCAN 01:14:55 8,0 27
96 397 BOULANGER FRANCIS MV3 9 VCAN 01:14:56 8,0 69
97 346 FEL ISABELLE FV1 14 NL 01:15:07 8,0 28
98 332 BOUSSAROQUE RÉGINE FV1 15 NL 01:15:23 8,0 29
99 334 MIQUEL RIGAL SOPHIE FV1 16 NL 01:16:29 7,8 30
100 333 AMPILLAC SALAVY MAGALI FV1 17 NL 01:16:29 7,8 31
101 396 MORENO VIRGINIE FSE 6 COURIR AU FEMININ 01:18:35 7,6 32
102 385 FERNANDEZ VIVIANE FV1 18 NL 01:18:36 7,6 33
103 408 PALAT CAROLE FV1 19 NL 01:18:36 7,6 34
104 313 DESSALES VERONIQUE FSE 7 NL 01:21:45 7,3 35
105 336 DIJOLS HERVÉ MV3 10 NL 01:25:37 7,0 70
106 384 LATORRE SOPHIE FSE 8 NL 01:25:37 7,0 36
107 390 FRANCZAK LAURENT MV4 1 NL 01:38:24 6,1 71
108 376 MURAT JEAN MARC MV3 0 NL 00:00:00 ABD Abd